sensor_id;sensor_type;location;lat;lon;timestamp;pressure;altitude;pressure_sealevel;temperature;humidity
19789;BME280;10054;59.332;18.244;2023-05-01T00:01:33;100959.67;;;6.06;53.65
19789;BME280;10054;59.332;18.244;2023-05-01T00:04:02;100947.16;;;6.02;53.69
19789;BME280;10054;59.332;18.244;2023-05-01T00:06:33;100955.58;;;5.99;53.77
19789;BME280;10054;59.332;18.244;2023-05-01T00:09:04;100953.94;;;5.96;53.87
19789;BME280;10054;59.332;18.244;2023-05-01T00:11:35;100953.23;;;5.92;53.96
19789;BME280;10054;59.332;18.244;2023-05-01T00:14:04;100962.00;;;5.91;54.07
19789;BME280;10054;59.332;18.244;2023-05-01T00:16:33;100953.29;;;5.91;54.21
19789;BME280;10054;59.332;18.244;2023-05-01T00:19:03;100959.44;;;5.90;54.34
19789;BME280;10054;59.332;18.244;2023-05-01T00:21:32;100956.45;;;5.87;54.54
19789;BME280;10054;59.332;18.244;2023-05-01T00:24:01;100960.88;;;5.85;54.56
19789;BME280;10054;59.332;18.244;2023-05-01T00:26:30;100960.14;;;5.82;54.66
19789;BME280;10054;59.332;18.244;2023-05-01T00:28:59;100955.87;;;5.79;54.80
19789;BME280;10054;59.332;18.244;2023-05-01T00:31:28;100957.81;;;5.74;55.04
19789;BME280;10054;59.332;18.244;2023-05-01T00:33:57;100960.55;;;5.71;55.09
19789;BME280;10054;59.332;18.244;2023-05-01T00:36:26;100957.58;;;5.69;55.37
19789;BME280;10054;59.332;18.244;2023-05-01T00:38:55;100955.08;;;5.66;55.49
19789;BME280;10054;59.332;18.244;2023-05-01T00:41:24;100950.41;;;5.62;55.64
19789;BME280;10054;59.332;18.244;2023-05-01T00:43:54;100958.27;;;5.62;55.92
19789;BME280;10054;59.332;18.244;2023-05-01T00:46:23;100953.54;;;5.60;55.84
19789;BME280;10054;59.332;18.244;2023-05-01T00:48:52;100953.66;;;5.57;56.08
19789;BME280;10054;59.332;18.244;2023-05-01T00:51:21;100943.75;;;5.53;56.25
19789;BME280;10054;59.332;18.244;2023-05-01T00:53:51;100947.22;;;5.54;56.46
19789;BME280;10054;59.332;18.244;2023-05-01T00:56:20;100942.89;;;5.53;56.65
19789;BME280;10054;59.332;18.244;2023-05-01T00:58:50;100942.84;;;5.54;56.80
19789;BME280;10054;59.332;18.244;2023-05-01T01:01:22;100941.08;;;5.55;56.92
19789;BME280;10054;59.332;18.244;2023-05-01T01:03:51;100942.39;;;5.55;57.01
19789;BME280;10054;59.332;18.244;2023-05-01T01:06:41;100938.97;;;5.53;57.14
19789;BME280;10054;59.332;18.244;2023-05-01T01:09:22;100938.12;;;5.52;57.39
19789;BME280;10054;59.332;18.244;2023-05-01T01:11:56;100938.58;;;5.52;57.41
19789;BME280;10054;59.332;18.244;2023-05-01T01:14:27;100939.99;;;5.49;57.54
19789;BME280;10054;59.332;18.244;2023-05-01T01:17:06;100938.34;;;5.46;57.77
19789;BME280;10054;59.332;18.244;2023-05-01T01:22:14;100934.92;;;5.44;58.27
19789;BME280;10054;59.332;18.244;2023-05-01T01:28:16;100935.89;;;5.42;58.44
19789;BME280;10054;59.332;18.244;2023-05-01T01:36:33;100936.33;;;5.29;58.75
19789;BME280;10054;59.332;18.244;2023-05-01T01:41:51;100933.13;;;5.21;59.32
19789;BME280;10054;59.332;18.244;2023-05-01T01:44:30;100935.88;;;5.18;59.44
19789;BME280;10054;59.332;18.244;2023-05-01T01:46:59;100929.91;;;5.15;59.61
19789;BME280;10054;59.332;18.244;2023-05-01T01:49:30;100934.84;;;5.11;59.92
19789;BME280;10054;59.332;18.244;2023-05-01T01:52:02;100930.12;;;5.09;60.17
19789;BME280;10054;59.332;18.244;2023-05-01T01:54:40;100928.92;;;5.06;60.36
19789;BME280;10054;59.332;18.244;2023-05-01T01:57:11;100926.02;;;5.02;60.60
19789;BME280;10054;59.332;18.244;2023-05-01T01:59:41;100931.80;;;4.98;60.76
19789;BME280;10054;59.332;18.244;2023-05-01T02:02:12;100928.89;;;4.94;60.94
19789;BME280;10054;59.332;18.244;2023-05-01T02:04:43;100930.41;;;4.88;61.15
19789;BME280;10054;59.332;18.244;2023-05-01T02:07:13;100926.64;;;4.83;61.37
19789;BME280;10054;59.332;18.244;2023-05-01T02:09:44;100920.66;;;4.80;61.57
19789;BME280;10054;59.332;18.244;2023-05-01T02:12:15;100923.84;;;4.76;61.87
19789;BME280;10054;59.332;18.244;2023-05-01T02:14:47;100920.47;;;4.73;62.11
19789;BME280;10054;59.332;18.244;2023-05-01T02:17:19;100916.65;;;4.70;62.21
19789;BME280;10054;59.332;18.244;2023-05-01T02:19:50;100915.05;;;4.66;62.48
19789;BME280;10054;59.332;18.244;2023-05-01T02:22:22;100920.38;;;4.62;62.75
19789;BME280;10054;59.332;18.244;2023-05-01T02:24:53;100916.50;;;4.61;62.86
19789;BME280;10054;59.332;18.244;2023-05-01T02:27:34;100909.22;;;4.57;63.11
19789;BME280;10054;59.332;18.244;2023-05-01T02:29:58;100913.64;;;4.55;63.25
19789;BME280;10054;59.332;18.244;2023-05-01T02:32:28;100906.76;;;4.53;63.47
19789;BME280;10054;59.332;18.244;2023-05-01T02:34:58;100909.47;;;4.50;63.65
19789;BME280;10054;59.332;18.244;2023-05-01T02:37:28;100906.05;;;4.48;63.86
19789;BME280;10054;59.332;18.244;2023-05-01T02:40:18;100899.20;;;4.45;64.04
19789;BME280;10054;59.332;18.244;2023-05-01T02:42:48;100900.61;;;4.42;64.24
19789;BME280;10054;59.332;18.244;2023-05-01T02:45:22;100896.39;;;4.38;64.48
19789;BME280;10054;59.332;18.244;2023-05-01T02:47:53;100896.03;;;4.36;64.60
19789;BME280;10054;59.332;18.244;2023-05-01T02:50:23;100890.06;;;4.32;64.64
19789;BME280;10054;59.332;18.244;2023-05-01T02:52:53;100890.11;;;4.31;64.80
19789;BME280;10054;59.332;18.244;2023-05-01T02:55:27;100878.95;;;4.25;65.12
19789;BME280;10054;59.332;18.244;2023-05-01T02:58:00;100887.70;;;4.24;65.34
19789;BME280;10054;59.332;18.244;2023-05-01T03:00:29;100883.38;;;4.23;65.50
19789;BME280;10054;59.332;18.244;2023-05-01T03:02:57;100881.22;;;4.23;65.71
19789;BME280;10054;59.332;18.244;2023-05-01T03:05:26;100875.14;;;4.22;65.70
19789;BME280;10054;59.332;18.244;2023-05-01T03:07:55;100873.83;;;4.22;65.97
19789;BME280;10054;59.332;18.244;2023-05-01T03:10:25;100867.75;;;4.22;66.12
19789;BME280;10054;59.332;18.244;2023-05-01T03:12:54;100877.75;;;4.22;66.33
19789;BME280;10054;59.332;18.244;2023-05-01T03:15:23;100873.38;;;4.23;66.40
19789;BME280;10054;59.332;18.244;2023-05-01T03:17:52;100871.58;;;4.25;66.77
19789;BME280;10054;59.332;18.244;2023-05-01T03:20:23;100872.83;;;4.26;67.15
19789;BME280;10054;59.332;18.244;2023-05-01T03:22:52;100870.17;;;4.28;67.17
19789;BME280;10054;59.332;18.244;2023-05-01T03:25:21;100868.36;;;4.30;67.44
19789;BME280;10054;59.332;18.244;2023-05-01T03:27:50;100863.49;;;4.33;67.49
19789;BME280;10054;59.332;18.244;2023-05-01T03:30:19;100863.80;;;4.37;67.72
19789;BME280;10054;59.332;18.244;2023-05-01T03:32:48;100863.74;;;4.38;67.92
19789;BME280;10054;59.332;18.244;2023-05-01T03:35:18;100868.46;;;4.40;68.10
19789;BME280;10054;59.332;18.244;2023-05-01T03:37:47;100861.83;;;4.43;68.22
19789;BME280;10054;59.332;18.244;2023-05-01T03:40:18;100865.52;;;4.49;68.47
19789;BME280;10054;59.332;18.244;2023-05-01T03:43:14;100861.84;;;4.55;68.35
19789;BME280;10054;59.332;18.244;2023-05-01T03:45:44;100854.25;;;4.60;68.53
19789;BME280;10054;59.332;18.244;2023-05-01T03:48:13;100856.25;;;4.66;68.60
19789;BME280;10054;59.332;18.244;2023-05-01T03:50:42;100854.28;;;4.72;69.20
19789;BME280;10054;59.332;18.244;2023-05-01T03:53:11;100854.47;;;4.79;69.42
19789;BME280;10054;59.332;18.244;2023-05-01T03:55:40;100852.09;;;4.85;69.41
19789;BME280;10054;59.332;18.244;2023-05-01T03:58:11;100852.89;;;4.87;69.14
19789;BME280;10054;59.332;18.244;2023-05-01T04:00:40;100851.64;;;4.85;69.17
19789;BME280;10054;59.332;18.244;2023-05-01T04:03:09;100848.17;;;4.85;69.40
19789;BME280;10054;59.332;18.244;2023-05-01T04:05:40;100844.66;;;4.86;69.45
19789;BME280;10054;59.332;18.244;2023-05-01T04:08:10;100844.89;;;4.91;70.26
19789;BME280;10054;59.332;18.244;2023-05-01T04:10:38;100838.95;;;5.11;71.11
19789;BME280;10054;59.332;18.244;2023-05-01T04:13:07;100839.42;;;5.44;70.92
19789;BME280;10054;59.332;18.244;2023-05-01T04:15:37;100837.16;;;5.80;70.49
19789;BME280;10054;59.332;18.244;2023-05-01T04:18:06;100837.98;;;6.14;69.19
19789;BME280;10054;59.332;18.244;2023-05-01T04:20:35;100835.73;;;6.37;68.12
19789;BME280;10054;59.332;18.244;2023-05-01T04:23:04;100836.92;;;6.61;67.32
19789;BME280;10054;59.332;18.244;2023-05-01T04:25:33;100838.86;;;6.76;66.81
19789;BME280;10054;59.332;18.244;2023-05-01T04:28:04;100828.67;;;6.99;66.77
19789;BME280;10054;59.332;18.244;2023-05-01T04:30:33;100829.00;;;7.30;66.14
19789;BME280;10054;59.332;18.244;2023-05-01T04:33:02;100833.52;;;7.64;65.14
19789;BME280;10054;59.332;18.244;2023-05-01T04:35:32;100821.48;;;7.96;63.96
19789;BME280;10054;59.332;18.244;2023-05-01T04:38:01;100823.42;;;8.27;63.01
19789;BME280;10054;59.332;18.244;2023-05-01T04:40:30;100821.45;;;8.58;61.78
19789;BME280;10054;59.332;18.244;2023-05-01T04:43:00;100820.34;;;8.88;61.35
19789;BME280;10054;59.332;18.244;2023-05-01T04:45:29;100825.05;;;9.14;60.48
19789;BME280;10054;59.332;18.244;2023-05-01T04:47:59;100827.55;;;9.33;59.97
19789;BME280;10054;59.332;18.244;2023-05-01T04:50:29;100823.84;;;9.53;59.31
19789;BME280;10054;59.332;18.244;2023-05-01T04:52:58;100819.22;;;9.72;58.73
19789;BME280;10054;59.332;18.244;2023-05-01T04:55:28;100820.91;;;9.89;58.01
19789;BME280;10054;59.332;18.244;2023-05-01T04:57:58;100822.94;;;10.00;57.50
19789;BME280;10054;59.332;18.244;2023-05-01T05:00:29;100823.83;;;10.07;57.16
19789;BME280;10054;59.332;18.244;2023-05-01T05:02:58;100819.95;;;10.06;57.62
19789;BME280;10054;59.332;18.244;2023-05-01T05:05:26;100828.07;;;10.10;57.75
19789;BME280;10054;59.332;18.244;2023-05-01T05:07:56;100826.75;;;10.10;57.69
19789;BME280;10054;59.332;18.244;2023-05-01T05:10:38;100816.30;;;10.08;58.03
19789;BME280;10054;59.332;18.244;2023-05-01T05:13:09;100824.50;;;10.11;57.97
19789;BME280;10054;59.332;18.244;2023-05-01T05:15:38;100818.64;;;10.06;57.84
19789;BME280;10054;59.332;18.244;2023-05-01T05:18:08;100818.69;;;9.97;58.31
19789;BME280;10054;59.332;18.244;2023-05-01T05:20:40;100819.51;;;9.91;58.66
19789;BME280;10054;59.332;18.244;2023-05-01T05:23:09;100822.28;;;9.80;58.34
19789;BME280;10054;59.332;18.244;2023-05-01T05:25:38;100817.31;;;9.67;58.98
19789;BME280;10054;59.332;18.244;2023-05-01T05:28:07;100815.05;;;9.61;59.18
19789;BME280;10054;59.332;18.244;2023-05-01T05:30:37;100817.17;;;9.54;59.25
19789;BME280;10054;59.332;18.244;2023-05-01T05:33:07;100809.30;;;9.46;59.87
19789;BME280;10054;59.332;18.244;2023-05-01T05:35:37;100811.35;;;9.57;60.17
19789;BME280;10054;59.332;18.244;2023-05-01T05:38:05;100811.78;;;9.72;59.84
19789;BME280;10054;59.332;18.244;2023-05-01T05:40:38;100814.20;;;9.83;59.44
19789;BME280;10054;59.332;18.244;2023-05-01T05:43:06;100805.95;;;9.89;59.17
19789;BME280;10054;59.332;18.244;2023-05-01T05:45:37;100803.05;;;9.94;59.32
19789;BME280;10054;59.332;18.244;2023-05-01T05:48:06;100805.69;;;9.94;59.19
19789;BME280;10054;59.332;18.244;2023-05-01T05:50:36;100806.75;;;9.99;59.45
19789;BME280;10054;59.332;18.244;2023-05-01T05:53:05;100813.37;;;10.06;59.25
19789;BME280;10054;59.332;18.244;2023-05-01T05:55:36;100814.22;;;10.06;58.84
19789;BME280;10054;59.332;18.244;2023-05-01T05:58:06;100816.27;;;10.01;58.88
19789;BME280;10054;59.332;18.244;2023-05-01T06:00:35;100813.42;;;9.97;59.01
19789;BME280;10054;59.332;18.244;2023-05-01T06:03:05;100812.11;;;9.97;59.59
19789;BME280;10054;59.332;18.244;2023-05-01T06:05:35;100815.33;;;10.02;59.34
19789;BME280;10054;59.332;18.244;2023-05-01T06:08:04;100810.47;;;10.10;59.03
19789;BME280;10054;59.332;18.244;2023-05-01T06:10:33;100801.97;;;10.21;59.50
19789;BME280;10054;59.332;18.244;2023-05-01T06:13:02;100803.52;;;10.32;59.24
19789;BME280;10054;59.332;18.244;2023-05-01T06:15:31;100799.28;;;10.44;59.16
19789;BME280;10054;59.332;18.244;2023-05-01T06:18:00;100797.14;;;10.58;58.77
19789;BME280;10054;59.332;18.244;2023-05-01T06:20:29;100795.75;;;10.66;57.97
19789;BME280;10054;59.332;18.244;2023-05-01T06:22:58;100793.75;;;10.56;56.93
19789;BME280;10054;59.332;18.244;2023-05-01T06:25:34;100803.89;;;10.40;58.07
19789;BME280;10054;59.332;18.244;2023-05-01T06:28:04;100798.52;;;10.28;58.78
19789;BME280;10054;59.332;18.244;2023-05-01T06:30:33;100798.11;;;10.19;58.96
19789;BME280;10054;59.332;18.244;2023-05-01T06:33:02;100807.75;;;10.12;59.45
19789;BME280;10054;59.332;18.244;2023-05-01T06:35:32;100797.38;;;10.09;59.94
19789;BME280;10054;59.332;18.244;2023-05-01T06:38:00;100798.02;;;10.05;60.13
19789;BME280;10054;59.332;18.244;2023-05-01T06:40:30;100803.09;;;10.01;60.32
19789;BME280;10054;59.332;18.244;2023-05-01T06:43:01;100797.52;;;9.99;60.72
19789;BME280;10054;59.332;18.244;2023-05-01T06:45:30;100798.08;;;9.97;60.47
19789;BME280;10054;59.332;18.244;2023-05-01T06:47:59;100801.48;;;9.99;61.31
19789;BME280;10054;59.332;18.244;2023-05-01T06:50:28;100773.09;;;10.11;60.60
19789;BME280;10054;59.332;18.244;2023-05-01T06:52:59;100773.09;;;10.11;60.60
19789;BME280;10054;59.332;18.244;2023-05-01T06:55:31;100791.00;;;10.36;60.48
19789;BME280;10054;59.332;18.244;2023-05-01T06:57:59;100787.72;;;10.53;60.58
19789;BME280;10054;59.332;18.244;2023-05-01T07:00:28;100769.84;;;10.73;59.68
19789;BME280;10054;59.332;18.244;2023-05-01T07:02:57;100769.84;;;10.73;59.68
19789;BME280;10054;59.332;18.244;2023-05-01T07:05:26;100784.55;;;10.84;58.96
19789;BME280;10054;59.332;18.244;2023-05-01T07:07:55;100770.80;;;10.93;59.07
19789;BME280;10054;59.332;18.244;2023-05-01T07:10:24;100770.80;;;10.93;59.07
19789;BME280;10054;59.332;18.244;2023-05-01T07:12:53;100771.55;;;11.09;58.55
19789;BME280;10054;59.332;18.244;2023-05-01T07:15:22;100782.07;;;11.16;58.05
19789;BME280;10054;59.332;18.244;2023-05-01T07:17:51;100779.33;;;11.25;57.89
19789;BME280;10054;59.332;18.244;2023-05-01T07:20:19;100777.72;;;11.30;57.67
19789;BME280;10054;59.332;18.244;2023-05-01T07:22:48;100771.88;;;11.25;57.38
19789;BME280;10054;59.332;18.244;2023-05-01T07:25:17;100770.38;;;11.20;57.59
19789;BME280;10054;59.332;18.244;2023-05-01T07:27:46;100771.73;;;11.13;57.48
19789;BME280;10054;59.332;18.244;2023-05-01T07:30:15;100776.27;;;11.04;57.71
19789;BME280;10054;59.332;18.244;2023-05-01T07:32:45;100771.45;;;10.97;57.07
19789;BME280;10054;59.332;18.244;2023-05-01T07:35:14;100773.44;;;10.93;58.11
19789;BME280;10054;59.332;18.244;2023-05-01T07:37:43;100770.80;;;11.00;58.60
19789;BME280;10054;59.332;18.244;2023-05-01T07:40:12;100766.64;;;11.10;58.88
19789;BME280;10054;59.332;18.244;2023-05-01T07:42:41;100766.30;;;11.29;58.04
19789;BME280;10054;59.332;18.244;2023-05-01T07:45:10;100766.30;;;11.29;58.04
19789;BME280;10054;59.332;18.244;2023-05-01T07:47:39;100761.86;;;11.37;57.62
19789;BME280;10054;59.332;18.244;2023-05-01T07:50:12;100756.19;;;11.43;57.84
19789;BME280;10054;59.332;18.244;2023-05-01T07:52:40;100757.02;;;11.50;57.76
19789;BME280;10054;59.332;18.244;2023-05-01T07:55:10;100751.05;;;11.61;57.33
19789;BME280;10054;59.332;18.244;2023-05-01T07:57:38;100750.75;;;11.66;56.69
19789;BME280;10054;59.332;18.244;2023-05-01T08:00:08;100752.15;;;11.71;56.76
19789;BME280;10054;59.332;18.244;2023-05-01T08:02:44;100746.67;;;11.81;56.81
19789;BME280;10054;59.332;18.244;2023-05-01T08:05:12;100747.45;;;11.89;56.72
19789;BME280;10054;59.332;18.244;2023-05-01T08:07:41;100747.25;;;11.92;56.26
19789;BME280;10054;59.332;18.244;2023-05-01T08:10:10;100750.57;;;11.89;56.63
19789;BME280;10054;59.332;18.244;2023-05-01T08:12:39;100747.14;;;11.81;56.20
19789;BME280;10054;59.332;18.244;2023-05-01T08:15:08;100756.58;;;11.71;56.42
19789;BME280;10054;59.332;18.244;2023-05-01T08:17:37;100751.22;;;11.65;56.94
19789;BME280;10054;59.332;18.244;2023-05-01T08:20:07;100746.53;;;11.56;56.88
19789;BME280;10054;59.332;18.244;2023-05-01T08:22:35;100748.05;;;11.53;57.42
19789;BME280;10054;59.332;18.244;2023-05-01T08:25:05;100746.17;;;11.48;57.70
19789;BME280;10054;59.332;18.244;2023-05-01T08:27:34;100751.66;;;11.45;57.65
19789;BME280;10054;59.332;18.244;2023-05-01T08:30:04;100748.44;;;11.47;58.23
19789;BME280;10054;59.332;18.244;2023-05-01T08:32:33;100754.93;;;11.56;58.52
19789;BME280;10054;59.332;18.244;2023-05-01T08:35:02;100751.80;;;11.63;58.21
19789;BME280;10054;59.332;18.244;2023-05-01T08:37:30;100746.96;;;11.70;58.03
19789;BME280;10054;59.332;18.244;2023-05-01T08:39:59;100752.63;;;11.71;57.66
19789;BME280;10054;59.332;18.244;2023-05-01T08:42:30;100748.93;;;11.73;57.84
19789;BME280;10054;59.332;18.244;2023-05-01T08:45:00;100749.67;;;11.75;57.75
19789;BME280;10054;59.332;18.244;2023-05-01T08:47:38;100753.74;;;11.74;56.18
19789;BME280;10054;59.332;18.244;2023-05-01T08:50:11;100748.75;;;11.69;56.65
19789;BME280;10054;59.332;18.244;2023-05-01T08:52:41;100747.18;;;11.60;56.54
19789;BME280;10054;59.332;18.244;2023-05-01T08:55:13;100745.96;;;11.58;57.08
19789;BME280;10054;59.332;18.244;2023-05-01T08:57:46;100735.39;;;11.58;57.00
19789;BME280;10054;59.332;18.244;2023-05-01T09:00:17;100736.89;;;11.62;56.81
19789;BME280;10054;59.332;18.244;2023-05-01T09:02:47;100738.41;;;11.59;56.63
19789;BME280;10054;59.332;18.244;2023-05-01T09:05:17;100736.16;;;11.53;56.33
19789;BME280;10054;59.332;18.244;2023-05-01T09:07:47;100742.29;;;11.53;56.58
19789;BME280;10054;59.332;18.244;2023-05-01T09:10:17;100732.87;;;11.49;56.78
19789;BME280;10054;59.332;18.244;2023-05-01T09:12:48;100730.33;;;11.48;57.30
19789;BME280;10054;59.332;18.244;2023-05-01T09:15:18;100730.12;;;11.51;57.64
19789;BME280;10054;59.332;18.244;2023-05-01T09:17:48;100734.17;;;11.57;57.66
19789;BME280;10054;59.332;18.244;2023-05-01T09:20:18;100729.91;;;11.61;57.55
19789;BME280;10054;59.332;18.244;2023-05-01T09:22:47;100724.30;;;11.73;57.42
19789;BME280;10054;59.332;18.244;2023-05-01T09:25:17;100730.61;;;11.84;57.63
19789;BME280;10054;59.332;18.244;2023-05-01T09:27:45;100723.62;;;11.96;57.47
19789;BME280;10054;59.332;18.244;2023-05-01T09:30:37;100725.39;;;12.03;56.91
19789;BME280;10054;59.332;18.244;2023-05-01T09:33:11;100720.47;;;12.04;56.54
19789;BME280;10054;59.332;18.244;2023-05-01T09:35:51;100719.36;;;12.01;55.88
19789;BME280;10054;59.332;18.244;2023-05-01T09:38:25;100714.38;;;11.96;55.69
19789;BME280;10054;59.332;18.244;2023-05-01T09:41:03;100723.56;;;11.91;56.09
19789;BME280;10054;59.332;18.244;2023-05-01T09:43:28;100714.75;;;11.84;56.03
19789;BME280;10054;59.332;18.244;2023-05-01T09:46:05;100710.51;;;11.75;55.75
19789;BME280;10054;59.332;18.244;2023-05-01T09:48:36;100716.39;;;11.66;55.78
19789;BME280;10054;59.332;18.244;2023-05-01T09:51:22;100721.05;;;11.55;55.85
19789;BME280;10054;59.332;18.244;2023-05-01T09:53:53;100697.33;;;11.41;56.19
19789;BME280;10054;59.332;18.244;2023-05-01T09:56:22;100698.66;;;11.34;56.44
19789;BME280;10054;59.332;18.244;2023-05-01T09:58:54;100698.59;;;11.28;56.05
19789;BME280;10054;59.332;18.244;2023-05-01T10:01:44;100697.75;;;11.20;55.70
19789;BME280;10054;59.332;18.244;2023-05-01T10:04:13;100703.93;;;11.14;56.18
19789;BME280;10054;59.332;18.244;2023-05-01T10:06:45;100703.75;;;11.10;57.98
19789;BME280;10054;59.332;18.244;2023-05-01T10:09:25;100694.42;;;11.04;59.75
19789;BME280;10054;59.332;18.244;2023-05-01T10:11:49;100697.16;;;11.03;62.38
19789;BME280;10054;59.332;18.244;2023-05-01T10:14:23;100694.70;;;11.07;63.87
19789;BME280;10054;59.332;18.244;2023-05-01T10:16:53;100686.88;;;11.05;65.78
19789;BME280;10054;59.332;18.244;2023-05-01T10:19:23;100683.95;;;11.10;66.41
19789;BME280;10054;59.332;18.244;2023-05-01T10:21:53;100683.90;;;11.17;65.67
19789;BME280;10054;59.332;18.244;2023-05-01T10:24:22;100683.21;;;11.28;64.91
19789;BME280;10054;59.332;18.244;2023-05-01T10:26:52;100674.42;;;11.34;63.12
19789;BME280;10054;59.332;18.244;2023-05-01T10:29:22;100668.56;;;11.36;62.43
19789;BME280;10054;59.332;18.244;2023-05-01T10:31:51;100667.15;;;11.38;61.77
19789;BME280;10054;59.332;18.244;2023-05-01T10:34:21;100667.72;;;11.36;61.16
19789;BME280;10054;59.332;18.244;2023-05-01T10:36:59;100667.72;;;11.36;61.16
19789;BME280;10054;59.332;18.244;2023-05-01T10:39:36;100666.80;;;11.30;61.27
19789;BME280;10054;59.332;18.244;2023-05-01T10:42:06;100660.02;;;11.26;60.77
19789;BME280;10054;59.332;18.244;2023-05-01T10:44:41;100649.38;;;11.20;60.54
19789;BME280;10054;59.332;18.244;2023-05-01T10:50:06;100633.22;;;11.12;59.56
19789;BME280;10054;59.332;18.244;2023-05-01T10:55:40;100638.79;;;11.07;59.33
19789;BME280;10054;59.332;18.244;2023-05-01T10:58:12;100642.45;;;11.12;60.07
19789;BME280;10054;59.332;18.244;2023-05-01T11:00:43;100642.97;;;11.17;62.00
19789;BME280;10054;59.332;18.244;2023-05-01T11:08:32;100625.53;;;11.14;64.59
19789;BME280;10054;59.332;18.244;2023-05-01T11:14:01;100621.75;;;11.18;63.14
19789;BME280;10054;59.332;18.244;2023-05-01T11:21:54;100618.89;;;11.09;64.43
19789;BME280;10054;59.332;18.244;2023-05-01T11:24:33;100615.60;;;11.05;65.79
19789;BME280;10054;59.332;18.244;2023-05-01T11:26:58;100608.83;;;11.01;67.07
19789;BME280;10054;59.332;18.244;2023-05-01T11:29:31;100610.44;;;10.97;67.35
19789;BME280;10054;59.332;18.244;2023-05-01T11:32:00;100593.08;;;11.00;69.18
19789;BME280;10054;59.332;18.244;2023-05-01T11:34:34;100593.08;;;11.00;69.18
19789;BME280;10054;59.332;18.244;2023-05-01T11:37:01;100595.88;;;11.11;70.23
19789;BME280;10054;59.332;18.244;2023-05-01T11:39:29;100593.14;;;11.12;69.88
19789;BME280;10054;59.332;18.244;2023-05-01T11:42:11;100582.14;;;11.18;69.64
19789;BME280;10054;59.332;18.244;2023-05-01T11:44:39;100580.52;;;11.23;68.33
19789;BME280;10054;59.332;18.244;2023-05-01T11:47:08;100574.30;;;11.24;67.24
19789;BME280;10054;59.332;18.244;2023-05-01T11:49:38;100569.48;;;11.24;68.28
19789;BME280;10054;59.332;18.244;2023-05-01T11:52:07;100571.85;;;11.21;67.75
19789;BME280;10054;59.332;18.244;2023-05-01T11:54:46;100570.09;;;11.14;66.76
19789;BME280;10054;59.332;18.244;2023-05-01T11:57:08;100573.48;;;10.97;65.32
19789;BME280;10054;59.332;18.244;2023-05-01T11:59:37;100571.45;;;10.80;67.36
19789;BME280;10054;59.332;18.244;2023-05-01T12:02:07;100571.45;;;10.80;67.36
19789;BME280;10054;59.332;18.244;2023-05-01T12:04:37;100568.38;;;10.67;66.89
19789;BME280;10054;59.332;18.244;2023-05-01T12:07:06;100576.37;;;10.72;67.11
19789;BME280;10054;59.332;18.244;2023-05-01T12:09:36;100565.73;;;10.74;66.68
19789;BME280;10054;59.332;18.244;2023-05-01T12:12:05;100565.73;;;10.74;66.68
19789;BME280;10054;59.332;18.244;2023-05-01T12:14:34;100559.89;;;10.69;68.38
19789;BME280;10054;59.332;18.244;2023-05-01T12:17:04;100560.66;;;10.64;70.31
19789;BME280;10054;59.332;18.244;2023-05-01T12:19:33;100562.48;;;10.49;71.36
19789;BME280;10054;59.332;18.244;2023-05-01T12:22:06;100551.65;;;10.46;72.65
19789;BME280;10054;59.332;18.244;2023-05-01T12:24:36;100553.53;;;10.44;73.37
19789;BME280;10054;59.332;18.244;2023-05-01T12:27:05;100559.28;;;10.44;73.67
19789;BME280;10054;59.332;18.244;2023-05-01T12:29:42;100555.05;;;10.41;74.93
19789;BME280;10054;59.332;18.244;2023-05-01T12:32:15;100549.63;;;10.37;75.92
19789;BME280;10054;59.332;18.244;2023-05-01T12:34:44;100546.42;;;10.32;76.89
19789;BME280;10054;59.332;18.244;2023-05-01T12:37:13;100553.40;;;10.26;78.41
19789;BME280;10054;59.332;18.244;2023-05-01T12:39:42;100550.73;;;10.19;79.30
19789;BME280;10054;59.332;18.244;2023-05-01T12:42:12;100544.42;;;10.14;81.03
19789;BME280;10054;59.332;18.244;2023-05-01T12:44:42;100544.52;;;10.13;82.47
19789;BME280;10054;59.332;18.244;2023-05-01T12:47:11;100538.12;;;10.10;83.56
19789;BME280;10054;59.332;18.244;2023-05-01T12:49:41;100540.38;;;10.02;84.83
19789;BME280;10054;59.332;18.244;2023-05-01T12:52:09;100540.84;;;9.94;86.13
19789;BME280;10054;59.332;18.244;2023-05-01T12:54:42;100542.81;;;9.83;89.11
19789;BME280;10054;59.332;18.244;2023-05-01T12:57:10;100541.67;;;9.73;89.27
19789;BME280;10054;59.332;18.244;2023-05-01T12:59:45;100533.98;;;9.63;90.78
19789;BME280;10054;59.332;18.244;2023-05-01T13:02:17;100532.09;;;9.58;92.25
19789;BME280;10054;59.332;18.244;2023-05-01T13:04:46;100529.72;;;9.46;91.89
19789;BME280;10054;59.332;18.244;2023-05-01T13:07:18;100534.67;;;9.37;92.78
19789;BME280;10054;59.332;18.244;2023-05-01T13:09:54;100531.09;;;9.31;93.52
19789;BME280;10054;59.332;18.244;2023-05-01T13:12:25;100525.06;;;9.29;93.06
19789;BME280;10054;59.332;18.244;2023-05-01T13:14:55;100526.47;;;9.27;94.22
19789;BME280;10054;59.332;18.244;2023-05-01T13:17:31;100531.27;;;9.28;96.80
19789;BME280;10054;59.332;18.244;2023-05-01T13:20:01;100522.13;;;9.19;95.31
19789;BME280;10054;59.332;18.244;2023-05-01T13:22:35;100519.93;;;9.11;95.42
19789;BME280;10054;59.332;18.244;2023-05-01T13:25:17;100513.33;;;9.04;96.85
19789;BME280;10054;59.332;18.244;2023-05-01T13:27:51;100516.78;;;8.98;96.88
19789;BME280;10054;59.332;18.244;2023-05-01T13:30:29;100508.04;;;8.97;97.33
19789;BME280;10054;59.332;18.244;2023-05-01T13:32:51;100506.17;;;8.99;97.56
19789;BME280;10054;59.332;18.244;2023-05-01T13:38:13;100498.27;;;8.99;99.93
19789;BME280;10054;59.332;18.244;2023-05-01T13:40:44;100497.42;;;8.99;100.00